CheckWX is a tool to help pilots better visualize weather data.  It is not intended as a substitute for an official pre-flight weather briefing.

08:15:07 UTC

KNZY METAR
North Island NAS / Halsey Field Airport
San Diego, California, USA
Current

23 mins ago

KNZY 220752Z 08004KT 10SM FEW055 FEW075 SCT095 10/03 A2977 RMK AO2 SLP079 T01000033 401610089 PNO $
Observed
Feb-22 @ 07:52 UTC
Wind
  • 080° at 4 KTS
Visibility
10 SM
Flight Rules
VFR
Cloud Levels
  • Few at 5,500' AGL
  • Few at 7,500' AGL
  • Scattered at 9,500' AGL
Temperature
10°C / 50°F
Dewpoint
C / 37°F
Humidity
62%
Altimeter
29.77" Hg
Pressure
1007.9 hPa
Previous

1 hour ago

KNZY 220652Z 10003KT 10SM FEW055 FEW075 SCT095 09/03 A2975 RMK AO2 SLP073 T00940033 PNO $
Observed
Feb-22 @ 06:52 UTC
Wind
  • 100° at 3 KTS
Visibility
10 SM
Flight Rules
VFR
Cloud Levels
  • Few at 5,500' AGL
  • Few at 7,500' AGL
  • Scattered at 9,500' AGL
Temperature
C / 48°F
Dewpoint
C / 37°F
Humidity
66%
Altimeter
29.75" Hg
Pressure
1007.3 hPa
Previous

2 hours ago

KNZY 220552Z 11007KT 10SM FEW055 SCT075 BKN095 11/04 A2973 RMK AO2 SLP067 6//// T01060039 10150 20106 51019 PNO $
Observed
Feb-22 @ 05:52 UTC
Wind
  • 110° at 7 KTS
Visibility
10 SM
Flight Rules
VFR
Cloud Levels
  • Few at 5,500' AGL
  • Scattered at 7,500' AGL
  • Broken at 9,500' AGL
Temperature
11°C / 52°F
Dewpoint
C / 39°F
Humidity
62%
Altimeter
29.73" Hg
Pressure
1006.7 hPa